createdAt,value
2023-05-01T00:05:18.924Z,83.64
2023-05-01T00:15:22.086Z,84.29
2023-05-01T00:25:26.384Z,85.18
2023-05-01T00:35:30.174Z,84.54
2023-05-01T00:45:34.610Z,85.22
2023-05-01T00:55:38.340Z,84.92
2023-05-01T01:05:51.457Z,84.57
2023-05-01T01:16:00.452Z,84.74
2023-05-01T01:26:20.309Z,84.08
2023-05-01T01:36:35.018Z,84.04
2023-05-01T01:46:41.403Z,83.94
2023-05-01T01:56:47.622Z,84.68
2023-05-01T02:06:51.031Z,85.02
2023-05-01T02:16:57.506Z,83.52
2023-05-01T02:27:06.672Z,79.99
2023-05-01T02:37:12.171Z,75.51
2023-05-01T02:47:20.341Z,76.44
2023-05-01T02:57:24.732Z,78.37
2023-05-01T03:07:35.228Z,78.31
2023-05-01T03:17:40.451Z,77.71
2023-05-01T03:27:43.306Z,75.72
2023-05-01T03:37:47.663Z,76.90
2023-05-01T03:47:50.690Z,77.04
2023-05-01T03:57:54.974Z,77.81
2023-05-01T04:07:57.972Z,78.43
2023-05-01T04:18:02.391Z,78.32
2023-05-01T04:28:05.577Z,78.43
2023-05-01T04:38:13.190Z,78.56
2023-05-01T04:48:16.239Z,78.09
2023-05-01T04:58:21.649Z,78.65
2023-05-01T05:08:24.600Z,79.73
2023-05-01T05:18:28.873Z,78.01
2023-05-01T05:28:32.013Z,77.44
2023-05-01T05:38:36.391Z,76.98
2023-05-01T05:48:39.311Z,75.33
2023-05-01T05:58:43.740Z,73.21
2023-05-01T06:08:46.584Z,72.42
2023-05-01T06:18:51.115Z,74.13
2023-05-01T06:28:54.834Z,72.70
2023-05-01T06:38:59.123Z,72.69
2023-05-01T06:49:02.267Z,73.00
2023-05-01T06:59:09.381Z,73.29
2023-05-01T07:09:14.200Z,73.58
2023-05-01T07:19:19.121Z,71.81
2023-05-01T07:29:22.070Z,72.36
2023-05-01T07:39:26.487Z,71.52
2023-05-01T07:49:29.319Z,72.65
2023-05-01T07:59:33.693Z,72.36
2023-05-01T08:09:36.533Z,72.53
2023-05-01T08:19:40.944Z,73.80
2023-05-01T08:29:43.948Z,75.63
2023-05-01T08:39:48.467Z,76.02
2023-05-01T08:49:52.643Z,76.72
2023-05-01T08:59:59.326Z,76.34
2023-05-01T09:10:02.908Z,75.93
2023-05-01T09:20:08.807Z,75.92
2023-05-01T09:30:30.653Z,76.03
2023-05-01T09:40:35.148Z,73.33
2023-05-01T09:50:39.566Z,67.11
2023-05-01T10:00:50.095Z,67.23
2023-05-01T10:11:04.916Z,67.71
2023-05-01T10:21:11.087Z,67.62
2023-05-01T10:31:14.520Z,70.26
2023-05-01T10:41:57.634Z,72.32
2023-05-01T10:52:02.972Z,74.55
2023-05-01T11:02:22.412Z,77.11
2023-05-01T11:12:52.978Z,79.02
2023-05-01T11:22:57.895Z,79.90
2023-05-01T11:33:01.306Z,80.64
2023-05-01T11:43:07.405Z,81.09
2023-05-01T11:53:13.456Z,82.81
2023-05-01T12:03:18.071Z,82.58
2023-05-01T12:13:21.820Z,82.67
2023-05-01T12:23:37.646Z,81.99
2023-05-01T12:33:40.769Z,82.25
2023-05-01T12:43:45.308Z,82.44
2023-05-01T12:53:49.354Z,82.33
2023-05-01T13:03:55.021Z,82.48
2023-05-01T13:14:08.324Z,81.49
2023-05-01T13:24:13.979Z,81.00
2023-05-01T13:34:25.191Z,80.69
2023-05-01T13:44:30.029Z,82.44
2023-05-01T13:54:39.716Z,82.08
2023-05-01T14:04:44.580Z,81.83
2023-05-01T14:14:49.391Z,82.82
2023-05-01T14:24:53.761Z,82.24
2023-05-01T14:34:57.536Z,83.21
2023-05-01T14:45:07.120Z,82.91
2023-05-01T14:55:18.411Z,82.79
2023-05-01T15:05:24.148Z,83.43
2023-05-01T15:15:32.098Z,83.08
2023-05-01T15:25:36.557Z,82.72
2023-05-01T15:35:39.589Z,82.30
2023-05-01T15:45:45.079Z,82.00
2023-05-01T15:55:48.257Z,82.60
2023-05-01T16:05:52.898Z,82.70
2023-05-01T16:15:55.949Z,83.08
2023-05-01T16:26:00.346Z,83.18
2023-05-01T16:36:03.330Z,84.15
2023-05-01T16:46:07.814Z,84.46
2023-05-01T16:56:11.213Z,84.19
2023-05-01T17:06:18.300Z,84.72
2023-05-01T17:16:21.453Z,85.70
2023-05-01T17:26:27.206Z,85.50
2023-05-01T17:36:36.760Z,86.08
2023-05-01T17:46:41.477Z,85.74
2023-05-01T17:56:50.004Z,85.12
2023-05-01T18:06:57.488Z,85.76
2023-05-01T18:17:08.126Z,85.26
2023-05-01T18:27:17.199Z,85.31
2023-05-01T18:37:24.843Z,84.88
2023-05-01T18:47:32.807Z,84.62
2023-05-01T18:57:36.487Z,84.99
2023-05-01T19:07:42.688Z,85.22
2023-05-01T19:17:49.017Z,85.37
2023-05-01T19:27:53.700Z,85.39
2023-05-01T19:37:56.995Z,86.05
2023-05-01T19:48:01.495Z,86.08
2023-05-01T19:58:05.024Z,86.34
2023-05-01T20:08:13.339Z,86.31
2023-05-01T20:28:38.169Z,87.68
2023-05-01T20:38:43.623Z,88.23
2023-05-01T20:48:48.031Z,88.19
2023-05-01T20:58:50.929Z,88.40
2023-05-01T21:08:55.468Z,88.27
2023-05-01T21:18:58.861Z,88.39
2023-05-01T21:29:03.334Z,88.49
2023-05-01T21:39:06.162Z,89.40
2023-05-01T21:49:11.901Z,89.66
2023-05-01T21:59:16.930Z,90.65
2023-05-01T22:09:21.969Z,90.26
2023-05-01T22:19:25.771Z,91.10
2023-05-01T22:29:30.646Z,92.35
2023-05-01T22:39:36.549Z,92.38
2023-05-01T22:49:40.977Z,92.41
2023-05-01T22:59:45.921Z,91.43
2023-05-01T23:09:50.435Z,91.70
2023-05-01T23:19:54.953Z,92.00
2023-05-01T23:29:59.459Z,91.82
2023-05-01T23:40:04.027Z,92.62
2023-05-01T23:50:09.404Z,92.35
